Latest Weather Observations for Low Isles

IDQ60801

Issued at 12:32 pm EST Thursday 23 February 2017 (issued every 30 minutes, with the page automatically refreshed every 10 minutes)

About weather observations | Map of weather stations | Latest weather observations for QLD | Other Formats
Station Details ID: 031037 Name: LOW ISLES LIGHTHOUSE Lat: -16.38 Lon: 145.56 Height: 2.9 m
Data from the previous 72 hours. | See also: Recent months at Low Isles
Date/Time
EST
Temp
°C
App
Temp
°C
Dew
Point
°C
Rel
Hum
%
Delta-T
°C
Wind Press
QNH
hPa
Press
MSL
hPa
Rain since
9am
mm
Dir  Spd
km/h
Gust
km/h
Spd
kts
Gust
kts
23/12:00pm 31.5 34.5 25.6 71 4.2 SSE 20 26 11 14 1012.6 1012.5 0.2
23/11:30am 30.2 31.9 24.1 70 4.2 SSE 22 26 12 14 1012.9 - 0.2
23/11:00am 30.2 32.2 24.6 72 3.9 SE 22 26 12 14 1013.2 - 0.2
23/10:30am 29.8 32.3 24.7 74 3.6 SSE 20 24 11 13 1013.5 - 0.2
23/10:00am 29.3 31.1 24.2 74 3.5 SSE 22 26 12 14 1013.4 - 0.0
23/09:30am 29.0 30.5 24.3 76 3.3 SSE 24 28 13 15 1013.5 - 0.0
23/09:00am 28.3 30.4 24.1 78 2.9 S 20 24 11 13 1013.5 1013.4 5.8
23/08:30am 27.9 29.5 23.9 79 2.8 S 22 26 12 14 1013.3 - 5.8
23/08:00am 27.7 29.0 23.3 77 3.0 S 22 26 12 14 1012.8 - 5.8
23/07:30am 27.1 29.0 23.8 82 2.3 S 20 24 11 13 1012.4 - 5.8
23/07:00am 26.7 29.2 24.4 87 1.6 S 19 22 10 12 1012.6 - 5.8
23/06:30am 26.5 29.0 24.5 89 1.4 SSW 19 20 10 11 1012.2 - 5.8
23/06:00am 26.4 28.1 24.6 90 1.2 WSW 24 28 13 15 1012.0 1011.9 5.8
23/05:30am 26.1 27.4 24.7 92 1.0 SSW 26 30 14 16 1011.9 - 5.8
23/05:00am 26.0 29.1 24.2 90 1.2 S 15 20 8 11 1011.8 - 5.4
23/04:30am 25.4 28.0 23.3 88 1.4 SSE 15 19 8 10 1011.9 - 5.2
23/04:00am 25.6 28.1 22.5 83 2.1 SSE 13 17 7 9 1011.7 - 3.6
23/03:30am 25.6 27.0 21.9 80 2.5 S 17 20 9 11 1011.5 - 3.6
23/03:00am 26.5 26.7 22.8 80 2.5 ENE 26 33 14 18 1011.7 1011.6 3.6
23/02:50am 26.8 26.3 22.8 79 2.7 E 30 33 16 18 1011.8 - 3.6
23/02:30am 27.3 31.6 24.2 83 2.1 S 9 11 5 6 1011.8 - 3.6
23/02:00am 27.3 29.5 24.2 83 2.1 SW 20 22 11 12 1011.8 - 3.6
23/01:30am 27.4 29.9 24.5 84 2.0 WSW 19 22 10 12 1012.3 - 3.6
23/01:00am 27.4 30.1 24.7 85 1.9 WSW 19 20 10 11 1012.7 - 3.6
23/12:30am 27.6 30.7 24.2 82 2.4 SSW 15 17 8 9 1013.0 - 3.6
23/12:00am 27.8 29.7 23.8 79 2.8 S 20 22 11 12 1013.2 1013.1 3.6
 
Date/Time
EST
Temp
°C
App
Temp
°C
Dew
Point
°C
Rel
Hum
%
Delta-T
°C
Wind Press
QNH
hPa
Press
MSL
hPa
Rain since
9am
mm
Dir  Spd
km/h
Gust
km/h
Spd
kts
Gust
kts
22/11:30pm 28.1 29.6 23.7 77 3.0 SSE 22 26 12 14 1013.4 - 3.6
22/11:00pm 27.9 28.1 24.1 80 2.6 SE 30 32 16 17 1013.5 - 3.6
22/10:30pm 27.5 26.6 25.1 87 1.7 SE 39 43 21 23 1013.5 - 3.6
22/10:00pm 28.1 27.3 24.7 82 2.4 SE 37 48 20 26 1013.4 - 3.6
22/09:52pm 28.6 29.7 25.0 81 2.5 SE 28 39 15 21 1013.2 - 3.6
22/09:30pm 27.4 31.0 24.3 83 2.1 ESE 13 20 7 11 1012.9 - 3.6
22/09:00pm 27.4 30.3 23.8 81 2.5 E 15 19 8 10 1012.5 1012.4 3.6
22/08:30pm 27.1 30.8 23.3 80 2.6 E 9 11 5 6 1011.9 - 3.6
22/08:00pm 26.9 30.2 23.2 80 2.5 NE 11 13 6 7 1011.8 - 3.6
22/07:30pm 27.4 28.8 23.6 80 2.6 ENE 22 28 12 15 1012.0 - 3.6
22/07:00pm 27.6 30.0 23.6 79 2.7 ESE 17 20 9 11 1011.4 - 3.6
22/06:30pm 27.8 30.7 23.8 79 2.8 ESE 15 19 8 10 1010.9 - 3.6
22/06:00pm 28.1 30.8 23.5 76 3.2 ESE 15 17 8 9 1010.5 1010.4 3.6
22/05:30pm 28.8 32.7 24.8 79 2.8 ESE 13 17 7 9 1010.1 - 3.6
22/05:00pm 29.3 32.2 24.4 75 3.4 ESE 17 22 9 12 1010.1 - 3.6
22/04:30pm 28.8 31.9 24.8 79 2.8 SE 17 20 9 11 1009.8 - 3.6
22/04:00pm 29.0 35.0 24.8 78 2.9 NNE 2 6 1 3 1009.9 - 3.6
22/03:30pm 28.5 33.3 25.1 82 2.4 NE 9 13 5 7 1010.1 - 3.6
22/03:00pm 28.3 34.4 24.5 80 2.6 CALM 0 6 0 3 1010.4 1010.3 3.6
22/02:30pm 28.0 32.4 25.0 84 2.1 N 11 19 6 10 1010.7 - 3.6
22/02:00pm 27.5 30.3 23.7 80 2.6 N 15 20 8 11 1011.2 - 3.6
22/01:30pm 28.0 31.2 25.0 84 2.1 S 17 20 9 11 1011.4 - 3.6
22/01:00pm 27.8 32.0 24.8 84 2.1 WSW 11 13 6 7 1011.8 - 3.6
22/12:30pm 26.7 30.5 24.7 89 1.4 NNW 13 15 7 8 1012.2 - 3.6
22/12:00pm 26.0 26.0 23.1 84 2.0 NNE 28 33 15 18 1012.5 1012.4 2.8
22/11:39am 27.9 27.9 23.1 75 3.3 NE 28 33 15 18 1012.6 - 0.0
22/11:30am 28.6 32.9 24.2 77 3.1 WSW 9 15 5 8 1012.6 - 0.0
22/11:00am 28.8 32.4 23.7 74 3.5 WSW 11 15 6 8 1012.7 - 0.0
22/10:30am 28.9 33.5 24.7 78 2.9 W 9 11 5 6 1013.0 - 0.0
22/10:00am 28.5 33.1 24.1 77 3.0 WSW 7 9 4 5 1013.0 - 0.0
22/09:30am 27.7 31.8 23.9 80 2.6 WSW 9 13 5 7 1013.0 - 0.0
22/09:00am 27.1 30.2 23.6 81 2.4 W 13 17 7 9 1012.9 1012.8 17.6
22/08:30am 27.1 30.7 24.4 85 1.9 W 13 17 7 9 1012.8 - 17.6
22/08:00am 26.4 30.1 23.3 83 2.1 WSW 9 13 5 7 1012.5 - 17.6
22/07:30am 26.6 29.2 23.3 82 2.3 W 15 17 8 9 1012.3 - 17.6
22/07:00am 26.2 28.7 23.1 83 2.1 WSW 15 19 8 10 1012.3 - 17.6
22/06:30am 26.2 28.5 23.5 85 1.8 WSW 17 19 9 10 1012.1 - 17.6
22/06:00am 24.8 28.7 23.6 93 0.8 SSW 9 11 5 6 1011.8 1011.7 17.6
22/05:30am 25.0 28.0 24.0 94 0.7 SW 15 19 8 10 1011.6 - 17.6
22/05:00am 25.1 28.6 24.9 99 0.1 S 15 17 8 9 1011.5 - 17.6
22/04:30am 23.7 27.2 21.8 89 1.3 N 6 7 3 4 1011.4 - 16.8
22/04:00am 24.7 25.3 22.8 89 1.3 NE 24 32 13 17 1011.2 - 7.6
22/03:30am 25.9 25.0 23.2 85 1.8 ENE 33 41 18 22 1011.2 - 5.2
22/03:00am 27.1 29.5 24.6 86 1.7 SSE 20 24 11 13 1011.2 1011.1 5.2
22/02:30am 26.9 28.8 24.4 86 1.7 SSE 22 24 12 13 1011.5 - 5.2
22/02:00am 26.6 31.1 24.6 89 1.4 SW 9 11 5 6 1011.9 - 5.2
22/01:30am 26.5 30.6 24.5 89 1.4 WSW 11 15 6 8 1012.2 - 5.2
22/01:00am 25.7 29.0 23.9 90 1.2 SSE 13 13 7 7 1012.1 - 5.2
22/12:30am 25.9 30.3 23.8 88 1.4 SSW 7 9 4 5 1012.8 - 5.2
22/12:00am 26.5 29.5 24.0 86 1.7 WSW 15 17 8 9 1013.4 1013.3 5.2
 
Date/Time
EST
Temp
°C
App
Temp
°C
Dew
Point
°C
Rel
Hum
%
Delta-T
°C
Wind Press
QNH
hPa
Press
MSL
hPa
Rain since
9am
mm
Dir  Spd
km/h
Gust
km/h
Spd
kts
Gust
kts
21/11:30pm 26.7 29.7 24.0 85 1.9 W 15 19 8 10 1013.8 - 5.2
21/11:00pm 26.5 28.7 24.0 86 1.7 WSW 19 22 10 12 1013.6 - 5.2
21/10:30pm 26.1 28.8 24.7 92 1.0 SW 19 20 10 11 1013.6 - 5.2
21/10:00pm 25.7 29.2 24.8 95 0.6 SSW 15 19 8 10 1013.7 - 5.0
21/09:30pm 25.5 29.4 24.3 93 0.8 SSW 11 13 6 7 1013.5 - 4.4
21/09:00pm 25.6 29.8 24.7 95 0.6 S 11 15 6 8 1013.1 1013.0 4.2
21/08:30pm 25.5 29.3 24.1 92 1.0 S 11 13 6 7 1012.9 - 3.8
21/08:00pm 25.6 29.6 23.8 90 1.2 SSW 9 15 5 8 1013.0 - 2.8
21/07:30pm 26.3 28.5 24.3 89 1.4 NW 20 26 11 14 1012.9 - 0.8
21/07:00pm 27.7 27.8 24.5 83 2.2 NW 32 39 17 21 1011.9 - 0.0
21/06:48pm 27.7 26.3 23.7 79 2.7 NW 37 46 20 25 1011.6 - 0.0
21/06:30pm 29.2 31.1 25.0 78 2.9 N 24 30 13 16 1011.3 - 0.0
21/06:00pm 29.2 31.4 24.3 75 3.4 NNE 20 26 11 14 1011.0 1010.9 0.0
21/05:30pm 29.4 31.6 24.9 77 3.2 NE 22 26 12 14 1010.5 - 0.0
21/05:00pm 29.3 31.8 24.8 77 3.1 NE 20 26 11 14 1010.2 - 0.0
21/04:30pm 29.5 32.7 25.0 77 3.2 ENE 17 19 9 10 1009.8 - 0.0
21/04:00pm 29.8 29.1 24.2 72 3.9 NE 35 43 19 23 1009.6 - 0.0
21/03:51pm 30.4 29.8 25.0 73 3.8 NE 37 43 20 23 1009.7 - 0.0
21/03:30pm 31.8 35.0 24.9 67 4.9 ENE 17 22 9 12 1009.8 - 0.0
21/03:00pm 31.8 35.3 24.9 67 4.9 ENE 15 19 8 10 1010.1 1010.0 0.0
21/02:30pm 32.1 35.6 25.4 67 4.8 E 17 20 9 11 1010.2 - 0.0
21/02:00pm 32.1 36.5 25.7 69 4.6 E 13 20 7 11 1010.4 - 0.0
21/01:30pm 31.5 35.9 25.1 69 4.5 ENE 11 13 6 7 1011.1 - 0.0
21/01:00pm 32.0 36.5 25.8 69 4.4 NE 13 17 7 9 1011.4 - 0.0
21/12:30pm 31.7 36.0 25.5 69 4.4 NE 13 17 7 9 1011.6 - 0.0
21/12:00pm 31.8 36.9 25.6 69 4.4 ENE 9 13 5 7 1012.2 1012.1 0.0
21/11:30am 31.2 36.3 25.5 71 4.0 ENE 9 13 5 7 1012.4 - 0.0
21/11:00am 31.1 37.3 25.2 71 4.2 N 2 6 1 3 1012.8 - 0.0
21/10:30am 29.8 34.7 24.4 73 3.8 S 6 7 3 4 1012.7 - 0.0
21/10:00am 28.7 33.4 24.3 77 3.1 SSW 7 9 4 5 1012.8 - 0.0
21/09:30am 27.8 32.3 24.0 80 2.6 SW 7 9 4 5 1012.6 - 0.0
21/09:00am 27.2 31.3 23.9 82 2.3 WSW 9 13 5 7 1012.5 1012.4 3.4
21/08:30am 27.1 30.7 24.4 85 1.9 WSW 13 15 7 8 1012.5 - 3.4
21/08:00am 27.0 30.1 24.1 84 2.0 W 15 17 8 9 1012.1 - 3.4
21/07:30am 27.0 30.3 24.5 86 1.7 W 15 17 8 9 1011.5 - 3.4
21/07:00am 26.2 30.8 24.2 89 1.4 W 7 9 4 5 1011.1 - 3.4
21/06:30am 26.6 30.7 24.6 89 1.4 W 11 13 6 7 1010.6 - 3.4
21/06:00am 26.2 30.1 24.2 89 1.4 WNW 11 13 6 7 1010.3 1010.2 3.4
21/05:30am 25.7 29.8 23.9 90 1.2 NW 9 13 5 7 1010.1 - 3.4
21/05:00am 25.8 30.3 23.7 88 1.4 W 6 9 3 5 1009.8 - 3.4
21/04:30am 26.2 30.7 23.7 86 1.7 W 6 9 3 5 1009.4 - 3.4
21/04:00am 26.8 30.4 24.3 86 1.7 W 13 17 7 9 1009.2 - 3.4
21/03:30am 26.8 29.1 24.5 87 1.6 W 20 24 11 13 1009.2 - 3.4
21/03:00am 26.7 28.9 24.2 86 1.7 WNW 20 22 11 12 1009.2 1009.1 3.4
21/02:30am 26.6 28.8 24.3 87 1.6 WNW 20 24 11 13 1009.4 - 3.4
21/02:00am 26.6 28.9 24.4 88 1.5 WNW 20 24 11 13 1009.8 - 3.4
21/01:30am 26.8 30.2 24.6 88 1.5 W 15 20 8 11 1009.9 - 3.4
21/01:00am 26.4 30.2 24.1 87 1.6 W 11 11 6 6 1010.4 - 3.4
21/12:30am 26.4 28.9 24.4 89 1.4 WNW 19 24 10 13 1010.9 - 3.4
21/12:00am 26.6 29.8 24.4 88 1.5 W 15 19 8 10 1011.2 1011.1 3.2
 
Date/Time
EST
Temp
°C
App
Temp
°C
Dew
Point
°C
Rel
Hum
%
Delta-T
°C
Wind Press
QNH
hPa
Press
MSL
hPa
Rain since
9am
mm
Dir  Spd
km/h
Gust
km/h
Spd
kts
Gust
kts
20/11:30pm 26.3 29.6 24.5 90 1.2 W 15 19 8 10 1011.6 - 3.2
20/11:00pm 25.9 28.1 24.3 91 1.1 NW 20 24 11 13 1012.0 - 3.2
20/10:30pm 26.3 28.3 25.1 93 0.8 NW 24 30 13 16 1011.8 - 2.4
20/10:00pm 26.7 28.7 24.5 88 1.5 NW 22 26 12 14 1012.1 - 1.0
20/09:30pm 27.3 29.6 24.4 84 2.0 W 20 24 11 13 1011.9 - 0.6
20/09:00pm 27.0 29.1 24.1 84 2.0 W 20 24 11 13 1011.8 1011.7 0.6
20/08:30pm 26.6 29.4 23.7 84 2.0 NW 15 17 8 9 1011.4 - 0.4
20/08:00pm 26.8 27.6 23.1 80 2.5 NW 24 28 13 15 1010.8 - 0.0
20/07:30pm 27.3 29.5 24.2 83 2.1 W 20 24 11 13 1010.2 - 0.0
20/07:00pm 28.2 32.5 24.2 79 2.8 W 9 11 5 6 1009.4 - 0.0
20/06:30pm 28.7 31.7 24.7 79 2.8 WSW 17 20 9 11 1009.1 - 0.0
20/06:00pm 29.0 31.4 24.6 77 3.1 WNW 20 24 11 13 1008.9 1008.8 0.0
20/05:30pm 29.4 33.6 24.7 76 3.3 NE 11 17 6 9 1008.5 - 0.0
20/05:00pm 30.1 34.4 24.9 73 3.6 E 11 15 6 8 1008.0 - 0.0
20/04:30pm 30.4 34.1 24.5 70 4.1 ENE 13 15 7 8 1007.9 - 0.0
20/04:00pm 31.7 35.9 24.8 67 4.9 ENE 11 15 6 8 1008.0 - 0.0
20/03:30pm 31.3 35.4 25.2 70 4.3 ENE 13 17 7 9 1008.0 - 0.0
20/03:00pm 31.6 34.6 24.7 67 4.9 ENE 17 20 9 11 1007.9 1007.8 0.0
20/02:30pm 33.2 36.6 25.2 63 5.7 E 17 20 9 11 1008.2 - 0.0
20/02:00pm 33.7 37.4 25.1 60 6.1 E 15 20 8 11 1008.2 - 0.0
20/01:30pm 33.8 37.2 25.2 60 6.1 E 17 19 9 10 1008.5 - 0.0
20/01:00pm 33.3 36.7 24.7 60 6.1 E 15 20 8 11 1008.9 - 0.0

Other Formats:

Comma delimited format used in spreadsheet applications
http://www.bom.gov.au/fwo/IDQ60801/IDQ60801.94285.axf

JavaScript Object Notation format (JSON) in row-major order
http://www.bom.gov.au/fwo/IDQ60801/IDQ60801.94285.json